Croxteth Park, United Kingdom
Current Conditions -  °F | °C
As of 10:20 AM on Thursday 27 Nov 2014 (Local Time) from EGGP Reporting Station
Haze Haze  
Wind Chill: 44°   Ceiling: 600
Heat Index: 46°   Visibility: 1.3mi
Dew Point: 45°   Wind: 6mph
Humidity: 93%   Direction: 110°ESE
Pressure: 29.59"   Gusts: NA
Location:  53.44°N, 2.89°W
Report Text: EGGP 271020Z 11005KT 2100 BR SCT002 BKN006 08/07 Q1002
Loading
Personal Weather Stations






























Interactive Weather Map New forecast layout! Learn more

10-Day Weather Forecast

Advertisements
Track Severe Weather on mobile